Time;durP1;ratioP1;P1;durP2;ratioP2;P2;SDS_P1;SDS_P2;PMS_P1;PMS_P2;Temp;Humidity;BMP_temperature;BMP_pressure;BME280_temperature;BME280_humidity;BME280_pressure;Samples;Min_cycle;Max_cycle;Signal;HPM_P1;HPM_P2
2022/06/26 00:00:10;;;;;;;6.22;1.80;;;24.20;96.70;;;;;;4960213;28;20517;-83
2022/06/26 00:02:40;;;;;;;4.68;1.92;;;24.20;96.70;;;;;;4966785;28;20125;-83
2022/06/26 00:05:08;;;;;;;3.70;1.58;;;24.10;96.70;;;;;;4941795;29;20078;-84
2022/06/26 00:07:36;;;;;;;6.25;2.20;;;24.10;96.70;;;;;;4965874;28;20074;-83
2022/06/26 00:10:06;;;;;;;7.75;2.25;;;24.00;96.70;;;;;;4968078;28;20123;-83
2022/06/26 00:12:34;;;;;;;8.60;2.20;;;23.90;96.70;;;;;;4961576;28;20153;-83
2022/06/26 00:15:02;;;;;;;6.75;1.92;;;23.80;96.70;;;;;;4966965;28;20059;-83
2022/06/26 00:17:30;;;;;;;5.28;2.10;;;23.70;96.70;;;;;;4954899;28;20137;-83
2022/06/26 00:20:00;;;;;;;4.15;1.80;;;23.70;96.70;;;;;;4946782;28;20057;-83
2022/06/26 00:22:28;;;;;;;4.95;1.63;;;23.70;96.70;;;;;;4965569;28;20137;-84
2022/06/26 00:24:56;;;;;;;5.43;1.88;;;23.70;96.70;;;;;;4949194;28;20050;-83
2022/06/26 00:27:24;;;;;;;4.90;1.70;;;23.70;96.70;;;;;;4954444;28;20059;-83
2022/06/26 00:29:52;;;;;;;6.65;1.75;;;23.70;96.70;;;;;;4970974;28;20046;-83
2022/06/26 00:32:20;;;;;;;3.03;1.40;;;23.80;96.70;;;;;;4955521;28;20898;-83
2022/06/26 00:34:48;;;;;;;3.22;1.42;;;23.80;96.70;;;;;;4962585;28;20043;-83
2022/06/26 00:37:18;;;;;;;5.63;1.50;;;23.80;96.70;;;;;;4986283;28;20047;-83
2022/06/26 00:39:46;;;;;;;3.15;1.63;;;23.80;96.70;;;;;;4969764;28;20389;-83
2022/06/26 00:42:14;;;;;;;2.95;1.58;;;23.80;96.70;;;;;;4964757;28;20047;-82
2022/06/26 00:44:42;;;;;;;5.68;1.75;;;23.90;96.70;;;;;;4961419;28;20102;-82
2022/06/26 00:47:10;;;;;;;3.45;1.60;;;24.00;96.70;;;;;;4972538;28;20069;-82
2022/06/26 00:49:38;;;;;;;7.00;1.90;;;23.90;96.70;;;;;;4951141;28;20049;-83
2022/06/26 00:52:07;;;;;;;6.57;2.17;;;23.90;96.70;;;;;;4966270;28;20089;-82
2022/06/26 00:54:37;;;;;;;5.95;1.60;;;23.80;96.70;;;;;;4969461;28;20047;-82
2022/06/26 00:57:05;;;;;;;5.43;1.77;;;23.70;96.70;;;;;;4954234;28;20055;-84
2022/06/26 00:59:33;;;;;;;6.55;2.17;;;23.70;96.70;;;;;;4965953;28;20139;-83
2022/06/26 01:02:01;;;;;;;4.97;1.98;;;23.80;96.70;;;;;;4965872;28;20066;-83
2022/06/26 01:04:29;;;;;;;5.07;2.25;;;23.60;96.70;;;;;;4965821;28;20058;-83
2022/06/26 01:06:57;;;;;;;3.85;1.38;;;23.60;96.70;;;;;;4965257;28;20497;-83
2022/06/26 01:09:25;;;;;;;3.88;1.55;;;23.50;96.70;;;;;;4964819;28;20057;-82
2022/06/26 01:11:55;;;;;;;4.20;1.35;;;23.50;96.70;;;;;;4969650;28;20047;-82
2022/06/26 01:14:30;;;;;;;3.57;1.47;;;23.60;96.70;;;;;;4949275;28;20047;-82
2022/06/26 01:16:59;;;;;;;4.57;1.77;;;23.50;96.70;;;;;;4970643;28;20334;-83
2022/06/26 01:19:27;;;;;;;5.07;1.63;;;23.50;96.70;;;;;;4952216;28;20046;-82
2022/06/26 01:21:55;;;;;;;4.03;2.00;;;23.50;96.70;;;;;;4965410;28;20058;-82
2022/06/26 01:24:25;;;;;;;2.65;1.40;;;23.40;96.70;;;;;;4963886;28;20122;-83
2022/06/26 01:26:53;;;;;;;3.08;1.58;;;23.40;96.70;;;;;;4950592;28;20086;-83
2022/06/26 01:29:21;;;;;;;3.10;1.65;;;23.40;96.70;;;;;;4958194;28;20416;-83
2022/06/26 01:31:49;;;;;;;4.72;1.65;;;23.40;96.70;;;;;;4964372;28;20054;-83
2022/06/26 01:34:17;;;;;;;8.40;2.08;;;23.30;96.70;;;;;;4953382;28;20051;-83
2022/06/26 01:36:45;;;;;;;4.07;1.70;;;23.30;96.70;;;;;;4961719;28;20230;-83
2022/06/26 01:39:13;;;;;;;4.07;1.50;;;23.20;96.70;;;;;;4966047;28;20047;-83
2022/06/26 01:41:43;;;;;;;4.43;1.85;;;23.10;96.70;;;;;;4946788;28;20097;-82
2022/06/26 01:44:12;;;;;;;6.25;1.60;;;23.10;96.70;;;;;;4954738;28;20057;-82
2022/06/26 01:46:40;;;;;;;3.08;1.60;;;23.10;96.70;;;;;;4972713;28;20082;-82
2022/06/26 01:49:08;;;;;;;5.18;1.80;;;23.10;96.70;;;;;;4969916;28;20039;-83
2022/06/26 01:51:38;;;;;;;9.80;2.40;;;23.10;96.70;;;;;;4955371;28;20043;-82
2022/06/26 01:54:06;;;;;;;4.97;2.17;;;23.10;96.70;;;;;;4970499;28;20046;-84
2022/06/26 01:56:35;;;;;;;5.65;1.80;;;23.10;96.70;;;;;;4965478;28;20558;-83
2022/06/26 01:59:04;;;;;;;4.55;1.75;;;23.10;96.70;;;;;;4972957;28;20057;-83
2022/06/26 02:01:42;;;;;;;4.10;1.80;;;23.00;96.70;;;;;;4952644;28;20046;-83
2022/06/26 02:04:16;;;;;;;7.28;2.05;;;23.10;96.70;;;;;;4950446;29;20079;-84
2022/06/26 02:06:44;;;;;;;3.90;1.73;;;23.00;96.70;;;;;;4969489;28;20046;-83
2022/06/26 02:14:55;;;;;;;9.18;2.35;;;22.90;96.70;;;;;;4968099;28;20054;-84
2022/06/26 02:17:23;;;;;;;5.20;1.50;;;22.80;96.70;;;;;;4946799;28;20105;-83
2022/06/26 02:19:52;;;;;;;7.10;2.10;;;22.90;96.70;;;;;;4962132;28;20043;-83
2022/06/26 02:22:20;;;;;;;4.72;1.80;;;22.80;96.70;;;;;;4962118;28;20055;-83
2022/06/26 02:24:48;;;;;;;4.65;2.10;;;22.90;96.70;;;;;;4953605;28;20496;-83
2022/06/26 02:27:16;;;;;;;2.90;1.80;;;22.80;96.70;;;;;;4962925;28;20212;-84
2022/06/26 02:29:43;;;;;;;2.38;1.65;;;22.80;96.70;;;;;;4969007;28;20110;-83
2022/06/26 02:32:13;;;;;;;4.53;1.83;;;22.80;96.70;;;;;;4961108;28;20053;-82
2022/06/26 02:34:41;;;;;;;3.78;1.65;;;22.80;96.70;;;;;;4970123;28;20046;-83
2022/06/26 02:37:10;;;;;;;6.80;2.05;;;22.70;96.70;;;;;;4949523;29;20047;-83
2022/06/26 02:39:38;;;;;;;3.60;1.90;;;22.70;96.70;;;;;;4958619;28;20141;-83
2022/06/26 02:42:06;;;;;;;4.57;1.80;;;22.70;96.70;;;;;;4968389;28;20643;-82
2022/06/26 02:44:34;;;;;;;7.05;2.10;;;22.70;96.70;;;;;;4968557;28;20130;-83
2022/06/26 02:47:05;;;;;;;3.20;1.85;;;22.70;96.70;;;;;;4955088;28;20042;-84
2022/06/26 02:49:34;;;;;;;6.70;1.88;;;22.70;96.70;;;;;;4968905;28;20055;-82
2022/06/26 02:52:04;;;;;;;5.93;1.98;;;22.70;96.70;;;;;;4960617;28;20055;-83
2022/06/26 02:54:32;;;;;;;4.53;1.55;;;22.70;96.70;;;;;;4968241;28;20066;-83
2022/06/26 02:57:00;;;;;;;6.13;2.05;;;22.60;96.70;;;;;;4952776;28;20043;-83
2022/06/26 02:59:28;;;;;;;3.80;1.92;;;22.60;96.70;;;;;;4966068;28;20129;-83
2022/06/26 03:01:58;;;;;;;6.40;2.13;;;22.50;96.70;;;;;;4964031;28;20539;-83
2022/06/26 03:05:02;;;;;;;4.47;2.00;;;22.40;96.70;;;;;;4929076;29;20058;-83
2022/06/26 03:07:31;;;;;;;7.90;2.08;;;22.30;96.70;;;;;;4910014;29;20056;-83
2022/06/26 03:10:01;;;;;;;3.22;1.52;;;22.30;96.70;;;;;;4912895;29;20044;-83
2022/06/26 03:12:29;;;;;;;6.82;1.95;;;22.40;96.70;;;;;;4912768;29;20403;-83
2022/06/26 03:14:57;;;;;;;5.03;1.65;;;22.40;96.70;;;;;;4906493;29;20044;-83
2022/06/26 03:17:25;;;;;;;7.25;1.83;;;22.30;96.70;;;;;;4912622;29;20572;-82
2022/06/26 03:19:53;;;;;;;6.72;1.77;;;22.30;96.70;;;;;;4896621;29;20055;-83
2022/06/26 03:22:23;;;;;;;7.20;1.98;;;22.20;96.70;;;;;;4912370;29;20052;-83
2022/06/26 03:24:51;;;;;;;3.95;1.70;;;22.20;96.70;;;;;;4890655;29;20044;-83
2022/06/26 03:27:19;;;;;;;4.65;1.90;;;22.30;96.70;;;;;;4911373;29;20148;-83
2022/06/26 03:29:47;;;;;;;3.30;1.40;;;22.20;96.70;;;;;;4910494;29;20056;-83
2022/06/26 03:32:15;;;;;;;4.20;1.58;;;22.10;96.70;;;;;;4902171;29;20151;-80
2022/06/26 03:34:56;;;;;;;7.88;1.75;;;22.10;96.70;;;;;;4903815;29;20420;-81
2022/06/26 03:37:27;;;;;;;7.13;2.20;;;22.10;96.70;;;;;;4911215;29;20067;-81
2022/06/26 03:39:57;;;;;;;5.20;1.50;;;22.00;96.70;;;;;;4938546;29;20051;-81
2022/06/26 03:42:26;;;;;;;8.23;1.80;;;22.00;96.70;;;;;;4945857;29;20060;-81
2022/06/26 03:44:54;;;;;;;6.78;1.83;;;22.00;96.70;;;;;;4931617;29;20051;-81
2022/06/26 03:47:22;;;;;;;6.88;1.95;;;22.00;96.70;;;;;;4947012;28;20063;-80
2022/06/26 03:49:55;;;;;;;6.53;1.95;;;22.00;96.70;;;;;;4931499;29;20506;-81
2022/06/26 03:52:26;;;;;;;4.40;1.42;;;22.00;96.70;;;;;;4946518;28;20490;-81
2022/06/26 03:54:58;;;;;;;5.57;1.95;;;22.00;96.70;;;;;;4944301;28;20053;-82
2022/06/26 03:57:27;;;;;;;3.42;1.75;;;22.00;96.70;;;;;;4941084;29;20066;-82
2022/06/26 03:59:56;;;;;;;7.40;2.30;;;21.90;96.70;;;;;;4934565;29;20523;-82
2022/06/26 04:02:42;;;;;;;4.00;1.60;;;21.90;96.70;;;;;;4947203;29;20054;-82
2022/06/26 04:05:28;;;;;;;3.92;1.65;;;21.90;96.70;;;;;;4938593;29;20133;-78
2022/06/26 04:08:11;;;;;;;5.47;1.88;;;22.00;96.70;;;;;;4932314;28;20047;-81
2022/06/26 04:10:47;;;;;;;5.57;1.80;;;22.00;96.70;;;;;;4932901;29;20497;-82
2022/06/26 04:13:33;;;;;;;5.05;1.50;;;21.90;96.70;;;;;;4945312;29;20051;-81
2022/06/26 04:16:02;;;;;;;9.75;2.55;;;21.90;96.70;;;;;;4938940;29;20055;-81
2022/06/26 04:18:33;;;;;;;3.88;1.85;;;21.90;96.70;;;;;;4940639;29;20058;-81
2022/06/26 04:21:02;;;;;;;6.30;2.20;;;21.90;96.70;;;;;;4932325;29;20058;-81
2022/06/26 04:23:33;;;;;;;7.53;1.80;;;22.00;96.70;;;;;;4930613;29;20091;-82
2022/06/26 04:26:07;;;;;;;5.07;1.85;;;22.00;96.70;;;;;;4926078;28;20048;-82
2022/06/26 04:28:36;;;;;;;8.18;2.05;;;22.00;96.70;;;;;;4964728;28;20050;-82
2022/06/26 04:31:07;;;;;;;5.88;1.73;;;22.00;96.70;;;;;;4967370;28;20042;-82
2022/06/26 04:33:36;;;;;;;6.10;1.75;;;22.00;96.70;;;;;;4942469;29;20122;-82
2022/06/26 04:36:07;;;;;;;6.78;2.20;;;21.90;96.70;;;;;;4959229;28;20063;-82
2022/06/26 04:38:39;;;;;;;7.82;2.70;;;21.90;96.70;;;;;;4971657;28;20051;-82
2022/06/26 04:43:56;;;;;;;9.93;3.90;;;22.10;96.70;;;;;;4968637;28;20051;-83
2022/06/26 04:46:24;;;;;;;12.15;4.18;;;22.20;96.70;;;;;;4966910;28;20062;-82
2022/06/26 04:48:56;;;;;;;6.10;3.22;;;22.20;96.70;;;;;;4967412;28;20043;-83
2022/06/26 04:51:25;;;;;;;6.53;3.47;;;22.30;96.70;;;;;;4951725;28;20937;-82
2022/06/26 04:53:57;;;;;;;5.75;2.88;;;22.40;96.70;;;;;;4967429;28;20739;-82
2022/06/26 04:56:33;;;;;;;6.85;2.80;;;22.50;96.70;;;;;;4946234;28;20043;-83
2022/06/26 04:59:01;;;;;;;9.27;2.90;;;22.50;96.70;;;;;;4950229;28;20051;-83
2022/06/26 05:01:29;;;;;;;3.95;2.30;;;22.60;96.70;;;;;;4950147;28;20051;-83
2022/06/26 05:04:17;;;;;;;6.50;2.50;;;22.60;96.70;;;;;;4965913;28;20572;-83
2022/06/26 05:07:04;;;;;;;6.75;2.55;;;22.50;96.70;;;;;;4966359;28;20884;-83
2022/06/26 05:09:37;;;;;;;6.22;2.58;;;22.50;96.70;;;;;;4939492;28;20150;-83
2022/06/26 05:12:07;;;;;;;4.53;2.08;;;22.50;96.70;;;;;;4959872;28;20047;-82
2022/06/26 05:15:01;;;;;;;6.13;2.33;;;22.60;96.70;;;;;;4955910;28;20145;-83
2022/06/26 05:17:36;;;;;;;5.47;2.40;;;22.70;96.70;;;;;;4956038;28;20086;-83
2022/06/26 05:20:07;;;;;;;6.70;2.35;;;22.80;96.70;;;;;;4970653;28;20085;-83
2022/06/26 05:22:36;;;;;;;5.68;2.28;;;22.90;96.70;;;;;;4969526;28;20042;-84
2022/06/26 05:25:06;;;;;;;5.93;3.13;;;23.00;96.70;;;;;;4953528;28;20057;-82
2022/06/26 05:27:34;;;;;;;6.43;2.05;;;23.00;96.70;;;;;;4951120;28;20082;-82
2022/06/26 05:30:04;;;;;;;8.00;2.47;;;23.10;96.70;;;;;;4964191;28;20050;-83
2022/06/26 05:32:38;;;;;;;8.30;2.25;;;23.20;96.70;;;;;;4961211;28;20051;-83
2022/06/26 05:35:10;;;;;;;4.72;1.88;;;23.30;96.70;;;;;;4961070;28;20541;-83
2022/06/26 05:37:38;;;;;;;5.68;2.15;;;23.40;96.70;;;;;;4968454;28;20074;-83
2022/06/26 05:40:09;;;;;;;5.22;2.08;;;23.40;96.70;;;;;;4947957;28;20786;-83
2022/06/26 05:42:40;;;;;;;6.05;2.22;;;23.50;96.70;;;;;;4955460;28;20053;-82
2022/06/26 05:45:11;;;;;;;3.28;1.88;;;23.60;96.70;;;;;;4959245;28;20133;-83
2022/06/26 05:47:43;;;;;;;6.53;1.77;;;23.70;96.70;;;;;;4964677;28;20043;-83
2022/06/26 05:50:46;;;;;;;4.15;1.92;;;23.70;96.70;;;;;;4898859;29;20055;-83
2022/06/26 05:53:34;;;;;;;4.07;2.50;;;23.80;96.70;;;;;;4895377;29;20056;-83
2022/06/26 05:56:22;;;;;;;6.20;2.17;;;23.90;96.70;;;;;;4919856;29;20114;-84
2022/06/26 05:58:53;;;;;;;5.40;2.20;;;23.90;96.70;;;;;;4898456;29;20051;-83
2022/06/26 06:01:39;;;;;;;5.72;2.20;;;24.00;96.70;;;;;;4911528;29;20063;-83
2022/06/26 06:04:14;;;;;;;10.85;2.10;;;24.10;96.70;;;;;;4895230;29;20150;-83
2022/06/26 06:06:43;;;;;;;6.60;2.22;;;24.20;96.70;;;;;;4895315;29;20507;-83
2022/06/26 06:09:11;;;;;;;6.00;2.00;;;24.20;96.70;;;;;;4896056;29;20092;-83
2022/06/26 06:11:41;;;;;;;10.82;3.20;;;24.30;96.70;;;;;;4894993;29;20044;-83
2022/06/26 06:14:16;;;;;;;6.82;2.70;;;24.30;96.70;;;;;;4895427;29;20118;-83
2022/06/26 06:16:45;;;;;;;7.78;3.00;;;24.40;96.70;;;;;;4900318;29;20063;-83
2022/06/26 06:19:13;;;;;;;8.15;2.50;;;24.40;96.70;;;;;;4895112;29;20087;-82
2022/06/26 06:21:44;;;;;;;9.98;3.70;;;24.50;96.70;;;;;;4910729;29;20058;-84
2022/06/26 06:24:13;;;;;;;9.88;3.13;;;24.60;96.70;;;;;;4920528;28;20079;-83
2022/06/26 06:26:46;;;;;;;9.30;2.47;;;24.70;96.70;;;;;;4965971;28;20085;-83
2022/06/26 06:29:21;;;;;;;4.72;1.73;;;24.80;96.70;;;;;;4967180;28;20141;-80
2022/06/26 06:31:49;;;;;;;18.02;2.72;;;24.80;96.70;;;;;;4948258;28;20126;-80
2022/06/26 06:34:26;;;;;;;27.27;5.05;;;24.80;96.70;;;;;;4965998;28;20142;-81
2022/06/26 06:36:55;;;;;;;9.13;2.58;;;24.90;96.70;;;;;;4946969;28;20085;-81
2022/06/26 06:39:23;;;;;;;8.45;1.80;;;24.90;96.70;;;;;;4963344;28;20050;-81
2022/06/26 06:41:54;;;;;;;5.82;1.88;;;25.10;96.70;;;;;;4963540;28;20058;-81
2022/06/26 06:44:22;;;;;;;4.78;1.90;;;25.20;96.70;;;;;;4962520;28;20062;-81
2022/06/26 06:47:12;;;;;;;5.18;2.00;;;25.20;96.70;;;;;;4963693;28;20145;-81
2022/06/26 06:50:00;;;;;;;8.65;1.92;;;25.20;96.70;;;;;;4965093;28;20055;-80
2022/06/26 06:52:28;;;;;;;4.97;1.80;;;25.20;96.70;;;;;;4947321;28;20452;-81
2022/06/26 06:54:56;;;;;;;5.70;1.67;;;25.30;96.70;;;;;;4944833;28;20491;-81
2022/06/26 06:57:28;;;;;;;6.90;1.88;;;25.40;96.70;;;;;;4963144;28;20043;-81
2022/06/26 06:59:57;;;;;;;5.68;2.00;;;25.40;96.70;;;;;;4965660;28;20157;-81
2022/06/26 07:02:25;;;;;;;3.63;1.83;;;25.40;96.70;;;;;;4967842;28;20496;-81
2022/06/26 07:04:53;;;;;;;5.25;2.05;;;25.50;96.70;;;;;;4950712;28;20527;-81
2022/06/26 07:07:22;;;;;;;8.10;1.73;;;25.50;96.70;;;;;;4955839;28;20057;-80
2022/06/26 07:09:51;;;;;;;5.07;1.80;;;25.60;96.70;;;;;;4961653;28;21022;-81
2022/06/26 07:12:19;;;;;;;4.38;1.70;;;25.70;96.70;;;;;;4939849;29;20045;-81
2022/06/26 07:14:49;;;;;;;4.10;1.63;;;25.80;96.70;;;;;;4960271;28;20061;-81
2022/06/26 07:17:18;;;;;;;6.47;1.90;;;25.90;96.70;;;;;;4944507;28;20055;-80
2022/06/26 07:19:52;;;;;;;7.60;1.95;;;26.00;96.70;;;;;;4964625;28;20068;-81
2022/06/26 07:22:21;;;;;;;7.65;2.17;;;26.00;96.70;;;;;;4966639;28;20504;-80
2022/06/26 07:24:57;;;;;;;6.03;1.65;;;26.10;96.70;;;;;;4961175;28;20516;-81
2022/06/26 07:27:36;;;;;;;6.03;1.63;;;26.30;96.70;;;;;;4973752;28;20082;-80
2022/06/26 07:30:07;;;;;;;4.20;1.42;;;26.50;96.70;;;;;;4964232;28;20058;-82
2022/06/26 07:32:46;;;;;;;3.38;1.63;;;26.60;96.70;;;;;;4947381;28;20527;-81
2022/06/26 07:35:14;;;;;;;4.60;1.50;;;26.70;96.70;;;;;;4956728;28;20529;-82
2022/06/26 07:37:42;;;;;;;5.18;1.90;;;26.90;96.70;;;;;;4955572;28;20378;-81
2022/06/26 07:40:12;;;;;;;5.32;1.60;;;27.00;96.70;;;;;;4958882;28;20055;-91
2022/06/26 07:42:41;;;;;;;3.30;1.40;;;27.00;96.70;;;;;;4949156;28;20050;-81
2022/06/26 07:45:11;;;;;;;2.90;1.48;;;26.90;96.70;;;;;;4959700;28;20149;-82
2022/06/26 07:47:56;;;;;;;5.13;1.60;;;26.90;96.70;;;;;;4966184;28;20054;-83
2022/06/26 07:50:24;;;;;;;5.82;1.75;;;27.10;96.70;;;;;;4950011;28;20057;-81
2022/06/26 07:52:56;;;;;;;10.32;3.22;;;27.10;96.70;;;;;;4967359;28;20049;-80
2022/06/26 07:55:26;;;;;;;5.03;1.80;;;27.10;96.70;;;;;;4969410;28;20039;-82
2022/06/26 07:57:54;;;;;;;7.50;2.03;;;27.20;96.70;;;;;;4967575;28;20575;-85
2022/06/26 08:00:24;;;;;;;7.40;2.25;;;27.20;96.70;;;;;;4949526;29;20039;-87
2022/06/26 08:02:52;;;;;;;4.55;2.13;;;27.30;96.70;;;;;;4967981;28;20407;-86
2022/06/26 08:05:21;;;;;;;6.32;1.88;;;27.40;96.70;;;;;;4943043;28;20599;-87
2022/06/26 08:07:51;;;;;;;4.75;1.75;;;27.50;96.70;;;;;;4964808;28;20058;-88
2022/06/26 08:10:22;;;;;;;8.00;2.17;;;27.50;96.70;;;;;;4963277;28;20418;-88
2022/06/26 08:12:50;;;;;;;5.28;1.83;;;27.50;96.70;;;;;;4966436;28;20680;-87
2022/06/26 08:15:20;;;;;;;6.07;1.85;;;27.60;96.70;;;;;;4950651;28;20039;-86
2022/06/26 08:17:50;;;;;;;8.00;2.05;;;27.60;96.70;;;;;;4968117;28;20059;-88
2022/06/26 08:20:19;;;;;;;6.43;1.95;;;27.70;96.70;;;;;;4968970;28;20059;-88
2022/06/26 08:22:47;;;;;;;9.27;2.10;;;27.80;96.70;;;;;;4969862;28;20035;-91
2022/06/26 08:25:16;;;;;;;7.40;2.55;;;27.80;96.70;;;;;;4960966;28;20070;-90
2022/06/26 08:27:44;;;;;;;5.68;2.03;;;27.90;96.70;;;;;;4965676;28;20061;-88
2022/06/26 08:30:12;;;;;;;5.90;1.60;;;28.00;96.70;;;;;;4967106;28;20404;-85
2022/06/26 08:32:42;;;;;;;5.82;1.80;;;28.10;96.70;;;;;;4968373;28;20123;-83
2022/06/26 08:35:13;;;;;;;3.33;1.92;;;28.10;96.70;;;;;;4961649;28;20071;-82
2022/06/26 08:37:45;;;;;;;4.50;1.33;;;28.20;96.70;;;;;;4949519;28;20058;-79
2022/06/26 08:40:14;;;;;;;4.95;1.75;;;28.30;96.70;;;;;;4967065;28;20039;-80
2022/06/26 08:42:43;;;;;;;6.15;1.50;;;28.40;96.70;;;;;;4967010;28;20039;-79
2022/06/26 08:45:12;;;;;;;3.40;1.60;;;28.50;96.70;;;;;;4934085;28;20088;-80
2022/06/26 08:47:41;;;;;;;5.50;1.52;;;28.80;96.70;;;;;;4965805;28;20051;-80
2022/06/26 08:50:11;;;;;;;4.53;1.40;;;29.00;96.70;;;;;;4967108;28;20065;-81
2022/06/26 08:52:42;;;;;;;5.95;1.75;;;28.90;96.70;;;;;;4966183;28;20051;-85
2022/06/26 08:55:11;;;;;;;3.10;1.63;;;28.90;96.70;;;;;;4964321;28;20074;-84
2022/06/26 08:57:39;;;;;;;5.95;2.00;;;29.00;96.70;;;;;;4970928;28;20058;-87
2022/06/26 09:00:08;;;;;;;6.90;2.03;;;29.00;96.70;;;;;;4971328;28;20493;-85
2022/06/26 09:02:36;;;;;;;7.07;2.00;;;29.20;96.70;;;;;;4972559;28;20054;-84
2022/06/26 09:05:06;;;;;;;4.82;1.90;;;29.40;96.70;;;;;;4962856;28;20050;-84
2022/06/26 09:07:45;;;;;;;5.15;2.00;;;29.50;96.70;;;;;;4942423;28;20070;-82
2022/06/26 09:10:17;;;;;;;5.03;1.60;;;29.50;96.70;;;;;;4961885;28;20077;-88
2022/06/26 09:12:50;;;;;;;5.65;1.58;;;29.50;96.70;;;;;;4957128;28;20567;-88
2022/06/26 09:15:20;;;;;;;7.22;2.25;;;29.50;96.70;;;;;;4972257;28;20058;-86
2022/06/26 09:17:59;;;;;;;8.05;1.67;;;29.60;96.70;;;;;;4952887;28;20065;-85
2022/06/26 09:20:28;;;;;;;5.35;1.67;;;29.70;96.70;;;;;;4965522;28;20126;-83
2022/06/26 09:23:00;;;;;;;7.78;2.00;;;29.80;96.70;;;;;;4971075;28;20050;-86
2022/06/26 09:25:36;;;;;;;3.95;1.90;;;29.80;96.70;;;;;;4970975;28;20117;-88
2022/06/26 09:28:10;;;;;;;7.75;2.00;;;29.90;96.70;;;;;;4963321;28;20062;-84
2022/06/26 09:30:53;;;;;;;7.53;1.90;;;30.10;96.70;;;;;;4951644;29;20090;-82
2022/06/26 09:33:22;;;;;;;4.25;2.08;;;30.20;96.70;;;;;;4968730;28;20521;-86
2022/06/26 09:36:02;;;;;;;6.20;1.45;;;30.30;96.70;;;;;;4967326;28;20054;-76
2022/06/26 09:38:32;;;;;;;5.10;1.67;;;30.30;96.70;;;;;;4960777;28;20057;-75
2022/06/26 09:41:02;;;;;;;5.25;1.80;;;30.30;96.70;;;;;;4957813;28;20047;-77
2022/06/26 09:43:34;;;;;;;4.43;1.77;;;30.30;96.70;;;;;;4953958;28;20074;-75
2022/06/26 09:46:04;;;;;;;8.90;2.15;;;30.50;96.70;;;;;;4958236;28;20074;-77
2022/06/26 09:48:33;;;;;;;6.63;1.90;;;30.60;96.70;;;;;;4960073;28;20046;-77
2022/06/26 09:51:02;;;;;;;5.97;1.67;;;30.70;96.70;;;;;;4964409;28;20047;-76
2022/06/26 09:53:32;;;;;;;9.00;2.20;;;30.60;96.70;;;;;;4960837;28;20130;-78
2022/06/26 09:56:02;;;;;;;8.52;2.00;;;30.50;96.70;;;;;;4960072;28;20070;-78
2022/06/26 09:58:30;;;;;;;6.60;1.90;;;30.50;96.70;;;;;;4960845;28;20043;-78
2022/06/26 10:06:37;;;;;;;10.25;1.70;;;30.80;96.70;;;;;;4963138;28;20055;-78
2022/06/26 10:09:07;;;;;;;6.07;2.42;;;30.60;96.70;;;;;;4965618;28;20485;-78
2022/06/26 10:11:37;;;;;;;14.73;5.90;;;30.50;96.70;;;;;;4958367;28;20043;-79
2022/06/26 10:14:12;;;;;;;12.23;5.93;;;30.60;96.70;;;;;;4961969;28;20043;-77
2022/06/26 10:16:56;;;;;;;5.85;2.35;;;30.60;96.70;;;;;;4953634;28;20054;-78
2022/06/26 10:19:33;;;;;;;7.10;2.20;;;30.90;96.70;;;;;;4956367;28;20051;-77
2022/06/26 10:22:02;;;;;;;13.00;3.20;;;31.20;96.70;;;;;;4955817;28;20457;-77
2022/06/26 10:24:32;;;;;;;10.32;2.55;;;31.40;96.70;;;;;;4960246;28;20061;-77
2022/06/26 10:27:02;;;;;;;5.95;1.80;;;31.50;96.70;;;;;;4940078;28;20055;-78
2022/06/26 10:29:36;;;;;;;8.02;1.48;;;31.60;96.70;;;;;;4959433;28;20047;-80
2022/06/26 10:32:06;;;;;;;8.18;1.90;;;31.90;96.70;;;;;;4957776;28;20061;-81
2022/06/26 10:34:36;;;;;;;7.68;1.98;;;32.00;96.70;;;;;;4959358;28;20117;-80
2022/06/26 10:37:15;;;;;;;10.07;2.20;;;31.90;96.70;;;;;;4962051;28;20101;-80
2022/06/26 10:39:49;;;;;;;4.93;1.40;;;31.90;96.70;;;;;;4955479;28;20046;-79
2022/06/26 10:45:12;;;;;;;6.63;1.70;;;32.10;96.60;;;;;;4950941;28;20145;-79
2022/06/26 10:47:44;;;;;;;6.60;2.08;;;32.20;96.70;;;;;;4946634;28;20165;-80
2022/06/26 10:50:41;;;;;;;7.97;2.30;;;32.40;96.70;;;;;;4953948;28;20046;-79
2022/06/26 10:53:21;;;;;;;6.07;1.88;;;32.40;95.80;;;;;;4914129;28;20078;-79
2022/06/26 10:55:53;;;;;;;7.45;1.83;;;32.50;95.50;;;;;;4940060;28;20055;-80
2022/06/26 10:58:26;;;;;;;7.15;1.90;;;32.60;95.80;;;;;;4952578;28;20044;-76
2022/06/26 11:00:57;;;;;;;4.55;1.80;;;32.80;95.60;;;;;;4957464;28;20054;-77
2022/06/26 11:03:27;;;;;;;8.55;2.25;;;32.90;94.50;;;;;;4959381;28;20082;-77
2022/06/26 11:05:59;;;;;;;7.57;1.80;;;33.10;94.60;;;;;;4953338;28;20057;-78
2022/06/26 11:08:30;;;;;;;8.38;1.73;;;33.20;93.70;;;;;;4953523;28;20059;-77
2022/06/26 11:11:02;;;;;;;5.72;2.08;;;33.20;94.60;;;;;;4956237;28;20548;-76
2022/06/26 11:13:31;;;;;;;7.22;2.13;;;33.30;94.70;;;;;;4952948;28;20473;-74
2022/06/26 11:16:00;;;;;;;7.05;2.22;;;33.20;95.10;;;;;;4958911;28;20134;-76
2022/06/26 11:18:34;;;;;;;8.80;1.85;;;33.40;93.80;;;;;;4950908;28;20053;-78
2022/06/26 11:21:03;;;;;;;6.85;1.80;;;33.50;94.30;;;;;;4958136;28;20051;-77
2022/06/26 11:23:34;;;;;;;7.60;2.00;;;33.70;93.80;;;;;;4952705;28;20047;-77
2022/06/26 11:26:06;;;;;;;6.63;1.73;;;33.70;93.90;;;;;;4943889;28;20109;-76
2022/06/26 11:28:37;;;;;;;6.75;2.13;;;33.80;93.30;;;;;;4958826;28;20055;-75
2022/06/26 11:31:07;;;;;;;7.68;2.50;;;33.80;93.30;;;;;;4963430;28;20126;-76
2022/06/26 11:33:37;;;;;;;4.57;1.80;;;33.80;92.20;;;;;;4953069;28;20573;-75
2022/06/26 11:36:07;;;;;;;5.97;1.83;;;33.90;92.30;;;;;;4960688;28;20489;-76
2022/06/26 11:38:36;;;;;;;11.82;2.17;;;34.10;92.30;;;;;;4955431;28;20070;-76
2022/06/26 11:41:08;;;;;;;10.02;2.33;;;34.30;91.90;;;;;;4955303;28;20055;-75
2022/06/26 11:43:44;;;;;;;6.20;1.92;;;34.40;92.20;;;;;;4954028;28;20058;-77
2022/06/26 11:46:13;;;;;;;5.80;1.98;;;34.60;91.00;;;;;;4952136;28;20047;-76
2022/06/26 11:48:41;;;;;;;9.57;2.25;;;34.70;91.70;;;;;;4959408;28;20047;-77
2022/06/26 11:51:13;;;;;;;7.53;2.15;;;34.80;90.60;;;;;;4955671;28;20047;-77
2022/06/26 11:53:44;;;;;;;7.85;1.83;;;34.70;90.90;;;;;;4942368;28;20057;-77
2022/06/26 11:56:19;;;;;;;6.38;2.28;;;34.70;90.80;;;;;;4955271;28;20069;-76
2022/06/26 11:58:50;;;;;;;11.38;2.97;;;34.80;90.90;;;;;;4957741;28;20039;-76
2022/06/26 12:01:19;;;;;;;7.03;2.00;;;34.80;90.90;;;;;;4955417;28;20046;-77
2022/06/26 12:03:52;;;;;;;8.82;5.18;;;34.90;91.00;;;;;;4960421;28;20054;-76
2022/06/26 12:06:29;;;;;;;8.27;2.83;;;35.00;91.30;;;;;;4954376;28;20145;-77
2022/06/26 12:09:16;;;;;;;13.10;3.42;;;35.30;90.20;;;;;;4957275;28;20081;-74
2022/06/26 12:11:47;;;;;;;8.98;2.40;;;35.50;89.60;;;;;;4941506;29;20074;-77
2022/06/26 12:14:17;;;;;;;10.93;2.47;;;35.70;89.80;;;;;;4959391;28;20039;-78
2022/06/26 12:16:47;;;;;;;9.50;2.13;;;35.70;88.80;;;;;;4955023;28;20051;-76
2022/06/26 12:19:16;;;;;;;10.07;2.58;;;35.70;88.80;;;;;;4957013;28;20050;-77
2022/06/26 12:21:45;;;;;;;6.22;2.13;;;35.70;88.30;;;;;;4938156;28;20130;-77
2022/06/26 12:24:14;;;;;;;8.00;2.25;;;35.60;88.20;;;;;;4965457;28;20626;-76
2022/06/26 12:26:43;;;;;;;9.50;1.48;;;35.60;88.60;;;;;;4957685;28;20145;-76
2022/06/26 12:29:13;;;;;;;8.00;1.83;;;35.60;88.50;;;;;;4963515;28;20445;-74
2022/06/26 12:31:43;;;;;;;7.38;1.77;;;35.80;88.40;;;;;;4947645;28;20046;-75
2022/06/26 12:34:11;;;;;;;10.52;2.35;;;36.10;88.70;;;;;;4960026;28;20151;-75
2022/06/26 12:36:39;;;;;;;8.65;2.03;;;36.10;86.70;;;;;;4958444;28;20103;-76
2022/06/26 12:39:09;;;;;;;9.57;2.50;;;36.10;88.20;;;;;;4960929;28;20054;-76
2022/06/26 12:41:57;;;;;;;10.05;1.80;;;36.40;88.20;;;;;;4959053;28;20404;-78
2022/06/26 12:44:27;;;;;;;5.47;1.50;;;36.20;87.00;;;;;;4942455;28;20504;-77
2022/06/26 12:46:55;;;;;;;8.23;1.80;;;36.10;86.50;;;;;;4958976;28;20070;-78
2022/06/26 12:49:23;;;;;;;10.07;1.92;;;36.00;85.70;;;;;;4958075;28;20561;-76
2022/06/26 12:51:52;;;;;;;5.55;2.05;;;36.00;85.10;;;;;;4959817;28;20451;-77
2022/06/26 12:54:20;;;;;;;10.85;2.17;;;36.00;85.90;;;;;;4956081;28;20494;-76
2022/06/26 12:56:48;;;;;;;6.57;1.83;;;36.10;86.00;;;;;;4946523;28;20065;-76
2022/06/26 12:59:16;;;;;;;7.32;1.50;;;36.30;85.80;;;;;;4961520;28;20150;-75
2022/06/26 13:01:45;;;;;;;6.70;1.85;;;36.70;85.90;;;;;;4963030;28;20402;-77
2022/06/26 13:04:13;;;;;;;6.70;2.10;;;36.90;86.10;;;;;;4962158;28;20519;-78
2022/06/26 13:06:40;;;;;;;8.25;2.08;;;37.10;84.20;;;;;;4959883;28;20061;-78
2022/06/26 13:09:08;;;;;;;8.48;2.03;;;37.40;82.70;;;;;;4957741;28;20071;-80
2022/06/26 13:11:37;;;;;;;9.93;2.22;;;37.80;82.20;;;;;;4959091;28;20496;-78
2022/06/26 13:14:05;;;;;;;6.68;1.92;;;38.00;82.00;;;;;;4956863;28;20409;-78
2022/06/26 13:16:35;;;;;;;7.95;1.95;;;38.00;81.40;;;;;;4959165;28;20047;-78
2022/06/26 13:19:06;;;;;;;7.53;2.30;;;38.00;81.40;;;;;;4959982;28;20552;-78
2022/06/26 13:21:35;;;;;;;8.70;1.88;;;38.20;80.40;;;;;;4956237;28;20050;-78